Time;durP1;ratioP1;P1;durP2;ratioP2;P2;SDS_P1;SDS_P2;PMS_P1;PMS_P2;Temp;Humidity;BMP_temperature;BMP_pressure;BME280_temperature;BME280_humidity;BME280_pressure;Samples;Min_cycle;Max_cycle;Signal;HPM_P1;HPM_P2
2021/08/30 00:01:30;;;;;;;43.23;21.80;;;;;;;14.05;100.00;100849.75;5032702;28;20222;-72
2021/08/30 00:03:55;;;;;;;64.73;24.50;;;;;;;14.05;100.00;100852.41;5033143;28;20180;-72
2021/08/30 00:06:21;;;;;;;56.87;25.40;;;;;;;14.04;100.00;100856.06;5034911;28;20232;-72
2021/08/30 00:08:46;;;;;;;52.40;24.20;;;;;;;14.07;100.00;100855.84;5050292;28;20669;-72
2021/08/30 00:11:11;;;;;;;49.07;24.13;;;;;;;14.04;100.00;100853.38;5049007;28;20184;-71
2021/08/30 00:13:37;;;;;;;49.83;24.63;;;;;;;14.04;100.00;100848.03;5033610;28;20299;-72
2021/08/30 00:16:03;;;;;;;73.77;27.60;;;;;;;14.05;100.00;100844.38;5048977;28;20631;-72
2021/08/30 00:18:28;;;;;;;55.83;24.00;;;;;;;14.05;100.00;100848.88;5033832;28;20184;-71
2021/08/30 00:20:53;;;;;;;43.77;22.60;;;;;;;14.04;100.00;100856.06;5034962;28;20504;-71
2021/08/30 00:23:19;;;;;;;46.47;22.60;;;;;;;14.01;100.00;100842.00;5054640;28;20195;-71
2021/08/30 00:25:44;;;;;;;44.07;22.23;;;;;;;14.00;100.00;100849.19;5039278;28;20175;-71
2021/08/30 00:28:09;;;;;;;67.40;26.23;;;;;;;14.00;100.00;100851.88;5039183;28;20202;-71
2021/08/30 00:30:35;;;;;;;43.73;21.20;;;;;;;13.99;100.00;100850.16;5054492;28;20577;-71
2021/08/30 00:33:00;;;;;;;60.13;24.47;;;;;;;13.98;100.00;100845.75;5054558;28;20184;-72
2021/08/30 00:35:26;;;;;;;46.63;22.93;;;;;;;13.98;100.00;100853.81;5038137;28;20204;-71
2021/08/30 00:37:51;;;;;;;44.20;23.53;;;;;;;13.96;100.00;100845.00;5038012;28;20649;-72
2021/08/30 00:40:16;;;;;;;49.87;23.27;;;;;;;13.96;100.00;100850.34;5054534;28;20188;-72
2021/08/30 00:42:43;;;;;;;53.93;22.77;;;;;;;13.94;100.00;100841.56;5054708;28;20278;-72
2021/08/30 00:45:10;;;;;;;40.33;20.70;;;;;;;13.95;100.00;100851.31;5054500;28;20549;-72
2021/08/30 00:47:37;;;;;;;61.17;24.47;;;;;;;13.94;100.00;100852.28;5037709;28;20191;-72
2021/08/30 00:50:06;;;;;;;46.03;22.53;;;;;;;13.94;100.00;100844.25;5037430;28;20204;-73
2021/08/30 00:52:32;;;;;;;36.43;19.70;;;;;;;13.97;100.00;100851.22;5037732;28;20269;-73
2021/08/30 00:54:58;;;;;;;40.97;21.70;;;;;;;13.97;100.00;100846.72;5037842;28;20172;-72
2021/08/30 00:57:23;;;;;;;62.60;24.47;;;;;;;13.99;100.00;100860.03;5054397;28;20609;-72
2021/08/30 00:59:49;;;;;;;41.30;21.97;;;;;;;14.00;100.00;100851.88;5038875;28;20200;-72
2021/08/30 01:02:14;;;;;;;58.17;24.43;;;;;;;14.00;100.00;100862.59;5037583;28;20537;-72
2021/08/30 01:04:41;;;;;;;54.57;25.93;;;;;;;14.01;100.00;100856.28;5054238;28;20176;-72
2021/08/30 01:07:17;;;;;;;47.57;22.30;;;;;;;14.05;100.00;100864.97;5020993;28;20183;-72
2021/08/30 01:09:47;;;;;;;55.00;24.23;;;;;;;14.05;100.00;100860.47;5037460;28;20199;-72
2021/08/30 01:12:16;;;;;;;46.67;22.43;;;;;;;14.10;100.00;100878.94;5037533;28;20176;-73
2021/08/30 01:15:03;;;;;;;43.67;21.03;;;;;;;14.10;100.00;100878.94;5037467;28;20183;-73
2021/08/30 01:17:31;;;;;;;56.70;23.60;;;;;;;14.12;100.00;100884.22;5038957;28;20179;-72
2021/08/30 01:20:09;;;;;;;52.37;21.07;;;;;;;14.12;100.00;100881.53;5037611;28;20242;-72
2021/08/30 01:22:37;;;;;;;29.13;10.63;;;;;;;14.00;100.00;100891.25;5037618;28;20554;-72
2021/08/30 01:25:03;;;;;;;17.17;8.40;;;;;;;13.88;100.00;100884.91;5054229;28;20222;-71
2021/08/30 01:27:29;;;;;;;14.57;7.83;;;;;;;13.87;100.00;100885.00;5037390;28;20645;-71
2021/08/30 01:30:06;;;;;;;11.70;5.23;;;;;;;13.77;100.00;100890.09;5037152;28;20207;-71
2021/08/30 01:32:36;;;;;;;7.27;5.00;;;;;;;13.71;100.00;100875.25;5052794;28;20543;-70
2021/08/30 01:35:07;;;;;;;6.87;4.60;;;;;;;13.66;100.00;100879.19;5034317;28;20169;-70
2021/08/30 01:37:34;;;;;;;6.90;4.23;;;;;;;13.66;100.00;100879.19;5050976;28;20215;-70
2021/08/30 01:40:00;;;;;;;6.50;4.10;;;;;;;13.65;100.00;100881.03;5034306;28;20192;-71
2021/08/30 01:42:26;;;;;;;5.00;3.93;;;;;;;13.61;100.00;100871.44;5050868;28;20188;-71
2021/08/30 01:44:53;;;;;;;6.00;3.67;;;;;;;13.61;100.00;100865.22;5035528;28;20194;-70
2021/08/30 01:47:19;;;;;;;5.57;3.57;;;;;;;13.57;100.00;100871.75;5033926;28;20638;-70
2021/08/30 01:49:44;;;;;;;11.40;4.60;;;;;;;13.58;100.00;100870.78;5081263;22;20223;-69
2021/08/30 01:52:09;;;;;;;4.27;3.40;;;;;;;13.51;100.00;100864.13;5054159;28;20188;-70
2021/08/30 01:54:35;;;;;;;5.50;3.60;;;;;;;13.50;100.00;100865.94;5054049;28;20626;-70
2021/08/30 01:57:00;;;;;;;6.33;4.00;;;;;;;13.47;100.00;100860.78;5054050;28;20255;-69
2021/08/30 02:02:10;;;;;;;5.60;3.80;;;;;;;13.43;100.00;100857.44;5054260;28;20175;-69
2021/08/30 02:04:36;;;;;;;5.10;4.03;;;;;;;13.39;100.00;100850.53;5054212;28;20530;-69
2021/08/30 02:07:03;;;;;;;6.07;3.83;;;;;;;13.38;100.00;100847.94;5054103;28;20273;-69
2021/08/30 02:09:29;;;;;;;15.27;5.33;;;;;;;13.33;100.00;100853.59;5054398;28;20203;-69
2021/08/30 02:11:55;;;;;;;11.23;5.13;;;;;;;13.32;100.00;100853.69;5054016;28;20642;-69
2021/08/30 02:14:20;;;;;;;6.23;4.63;;;;;;;13.28;100.00;100862.88;5054062;28;20684;-69
2021/08/30 02:16:49;;;;;;;7.37;4.70;;;;;;;13.27;100.00;100856.66;5055461;28;20253;-70
2021/08/30 02:19:22;;;;;;;9.97;5.50;;;;;;;13.26;100.00;100862.13;5041798;28;20196;-70
2021/08/30 02:21:57;;;;;;;10.70;5.43;;;;;;;13.27;100.00;100864.72;5042992;28;20167;-70
2021/08/30 02:24:34;;;;;;;6.13;5.00;;;;;;;13.27;100.00;100867.41;5053837;28;20186;-70
2021/08/30 02:27:07;;;;;;;7.33;4.47;;;;;;;13.28;100.00;100865.56;5053967;28;20258;-70
2021/08/30 02:29:39;;;;;;;5.07;3.97;;;;;;;13.27;100.00;100867.41;5036888;28;20211;-70
2021/08/30 02:32:06;;;;;;;8.17;3.83;;;;;;;13.30;100.00;100867.19;5036921;28;20179;-70
2021/08/30 02:34:33;;;;;;;5.37;3.73;;;;;;;13.31;100.00;100874.28;5053462;28;20180;-72
2021/08/30 02:36:59;;;;;;;5.97;3.80;;;;;;;13.32;100.00;100878.69;5055833;28;20203;-70
2021/08/30 02:39:24;;;;;;;5.87;4.37;;;;;;;13.29;100.00;100876.19;5055497;28;20619;-70
2021/08/30 02:41:50;;;;;;;8.37;4.60;;;;;;;13.29;100.00;100870.84;5053883;28;20179;-70
2021/08/30 02:44:16;;;;;;;4.83;4.07;;;;;;;13.26;100.00;100859.44;5052511;28;20175;-70
2021/08/30 02:46:45;;;;;;;7.90;4.10;;;;;;;13.25;100.00;100860.41;5052938;28;20629;-70
2021/08/30 02:49:13;;;;;;;6.27;3.90;;;;;;;13.23;100.00;100865.88;5036277;28;20199;-70
2021/08/30 02:51:39;;;;;;;6.00;4.07;;;;;;;13.25;100.00;100861.28;5054661;28;20175;-70
2021/08/30 02:54:06;;;;;;;8.60;3.80;;;;;;;13.27;100.00;100862.03;5053490;28;20582;-70
2021/08/30 02:56:32;;;;;;;5.87;4.10;;;;;;;13.24;100.00;100862.22;5052964;28;20174;-70
2021/08/30 02:58:58;;;;;;;7.33;4.30;;;;;;;13.21;100.00;100861.56;5054994;28;20176;-70
2021/08/30 03:01:23;;;;;;;7.50;4.17;;;;;;;13.19;100.00;100864.34;5052976;28;20266;-71
2021/08/30 03:03:49;;;;;;;10.40;5.40;;;;;;;13.17;100.00;100860.91;5036245;28;20217;-70
2021/08/30 03:06:14;;;;;;;6.83;4.30;;;;;;;13.15;100.00;100862.78;5052838;28;20198;-70
2021/08/30 03:08:40;;;;;;;7.00;4.50;;;;;;;13.14;100.00;100861.91;5052972;28;20182;-70
2021/08/30 03:11:06;;;;;;;7.00;5.03;;;;;;;13.13;100.00;100859.34;5052487;28;20249;-70
2021/08/30 03:13:32;;;;;;;9.67;5.17;;;;;;;13.15;100.00;100860.09;5069779;28;20203;-70
2021/08/30 03:15:57;;;;;;;9.13;5.27;;;;;;;13.12;100.00;100868.34;5052495;28;20625;-69
2021/08/30 03:18:22;;;;;;;10.47;5.40;;;;;;;13.06;100.00;100869.59;5052755;28;20207;-70
2021/08/30 03:20:52;;;;;;;9.50;5.37;;;;;;;13.10;100.00;100870.25;5052953;28;20565;-71
2021/08/30 03:23:17;;;;;;;6.50;5.13;;;;;;;13.14;100.00;100869.97;5053189;28;20171;-70
2021/08/30 03:25:43;;;;;;;14.23;6.50;;;;;;;13.13;100.00;100872.75;5070024;28;20660;-70
2021/08/30 03:28:10;;;;;;;7.13;5.33;;;;;;;13.07;100.00;100865.94;5036804;28;20179;-70
2021/08/30 03:30:36;;;;;;;14.80;6.27;;;;;;;13.06;100.00;100871.41;5036074;28;20199;-70
2021/08/30 03:33:01;;;;;;;11.13;6.43;;;;;;;13.06;100.00;100874.09;5036183;28;20569;-70
2021/08/30 03:35:28;;;;;;;7.97;5.87;;;;;;;13.06;100.00;100877.63;5052728;28;20179;-70
2021/08/30 03:37:54;;;;;;;10.53;6.50;;;;;;;13.06;100.00;100874.94;5052290;28;20179;-69
2021/08/30 03:40:20;;;;;;;6.83;5.60;;;;;;;13.05;100.00;100872.38;5052185;28;20225;-70
2021/08/30 03:42:46;;;;;;;11.43;6.57;;;;;;;13.08;100.00;100866.81;5069093;28;20187;-70
2021/08/30 03:45:12;;;;;;;11.47;6.40;;;;;;;13.12;100.00;100873.69;5052591;28;20171;-69
2021/08/30 03:47:38;;;;;;;12.10;6.60;;;;;;;13.05;100.00;100873.22;5051880;28;20217;-70
2021/08/30 03:50:05;;;;;;;13.93;6.73;;;;;;;13.06;100.00;100879.44;5051689;28;20215;-70
2021/08/30 03:52:31;;;;;;;13.20;6.77;;;;;;;13.06;100.00;100876.75;5051835;28;20182;-70
2021/08/30 03:54:57;;;;;;;16.07;7.33;;;;;;;13.08;100.00;100882.88;5052126;28;20255;-70
2021/08/30 03:57:22;;;;;;;9.97;6.00;;;;;;;13.06;100.00;100884.81;5051467;28;20663;-70
2021/08/30 03:59:53;;;;;;;9.23;6.50;;;;;;;13.11;100.00;100874.66;5051672;28;20226;-70
2021/08/30 04:02:19;;;;;;;10.43;6.23;;;;;;;13.07;100.00;100873.13;5035105;28;20259;-70
2021/08/30 04:04:45;;;;;;;11.23;6.33;;;;;;;13.08;100.00;100875.72;5034958;28;20271;-70
2021/08/30 04:07:11;;;;;;;8.40;5.10;;;;;;;13.07;100.00;100874.00;5051821;28;20183;-70
2021/08/30 04:09:36;;;;;;;11.93;6.17;;;;;;;13.03;100.00;100883.19;5051279;28;20195;-70
2021/08/30 04:12:03;;;;;;;9.53;5.87;;;;;;;13.05;100.00;100877.72;5053003;28;20179;-70
2021/08/30 04:14:28;;;;;;;13.87;6.10;;;;;;;13.09;100.00;100882.78;5051648;28;20258;-70
2021/08/30 04:16:53;;;;;;;16.13;6.20;;;;;;;13.14;100.00;100891.41;5035013;28;20618;-70
2021/08/30 04:19:19;;;;;;;6.40;4.70;;;;;;;13.14;100.00;100898.59;5051965;28;20196;-70
2021/08/30 04:21:44;;;;;;;7.53;4.63;;;;;;;13.14;100.00;100899.44;5051693;28;20585;-70
2021/08/30 04:24:10;;;;;;;8.60;4.63;;;;;;;13.12;100.00;100896.00;5052810;28;20176;-70
2021/08/30 04:26:35;;;;;;;5.10;3.93;;;;;;;13.10;100.00;100889.88;5051525;28;20254;-70
2021/08/30 04:29:01;;;;;;;5.80;4.27;;;;;;;13.12;100.00;100892.47;5034608;28;20233;-70
2021/08/30 04:31:26;;;;;;;9.07;4.83;;;;;;;13.15;100.00;100895.81;5053298;28;20180;-70
2021/08/30 04:33:51;;;;;;;7.10;4.03;;;;;;;13.14;100.00;100894.09;5054133;28;20190;-71
2021/08/30 04:36:17;;;;;;;6.53;4.50;;;;;;;13.13;100.00;100900.41;5054355;28;20175;-71
2021/08/30 04:38:42;;;;;;;8.00;4.47;;;;;;;13.13;100.00;100896.84;5070419;28;20185;-70
2021/08/30 04:41:07;;;;;;;6.07;3.80;;;;;;;13.13;100.00;100891.50;5054330;28;20255;-71
2021/08/30 04:43:33;;;;;;;11.23;4.63;;;;;;;13.17;100.00;100889.47;5052756;28;20293;-70
2021/08/30 04:45:58;;;;;;;5.40;4.07;;;;;;;13.17;100.00;100887.69;5036028;28;20229;-71
2021/08/30 04:48:23;;;;;;;6.33;3.50;;;;;;;13.19;100.00;100885.78;5052700;28;20217;-70
2021/08/30 04:50:49;;;;;;;10.53;5.50;;;;;;;13.23;100.00;100897.16;5053371;28;20214;-70
2021/08/30 04:53:14;;;;;;;6.70;4.60;;;;;;;13.28;100.00;100901.28;5054341;28;20665;-70
2021/08/30 04:55:39;;;;;;;14.63;5.53;;;;;;;13.23;100.00;100894.50;5053746;28;20557;-70
2021/08/30 04:58:07;;;;;;;5.50;3.83;;;;;;;13.23;100.00;100902.53;5053764;28;20541;-70
2021/08/30 05:00:33;;;;;;;6.30;4.50;;;;;;;13.22;100.00;100906.16;5053329;28;20201;-69
2021/08/30 05:02:58;;;;;;;7.03;4.80;;;;;;;13.22;100.00;100907.03;5055107;28;20168;-70
2021/08/30 05:05:23;;;;;;;11.53;5.30;;;;;;;13.25;100.00;100912.19;5055830;28;20183;-71
2021/08/30 05:07:49;;;;;;;18.53;6.50;;;;;;;13.23;100.00;100916.78;5055687;28;20183;-70
2021/08/30 05:10:14;;;;;;;8.93;5.30;;;;;;;13.19;100.00;100909.03;5059278;28;20195;-71
2021/08/30 05:12:40;;;;;;;5.90;4.17;;;;;;;13.16;100.00;100915.44;5040848;28;20522;-70
2021/08/30 05:15:06;;;;;;;13.97;5.47;;;;;;;13.13;100.00;100915.63;5057239;28;20175;-71
2021/08/30 05:17:31;;;;;;;7.50;4.20;;;;;;;13.13;100.00;100927.19;5057399;28;20587;-70
2021/08/30 05:19:57;;;;;;;9.57;5.00;;;;;;;13.13;100.00;100918.28;5057674;28;20191;-70
2021/08/30 05:22:22;;;;;;;9.67;5.03;;;;;;;13.15;100.00;100924.41;5058892;28;20179;-70
2021/08/30 05:24:48;;;;;;;22.37;8.57;;;;;;;13.16;100.00;100928.81;5057386;28;20203;-70
2021/08/30 05:27:13;;;;;;;11.50;5.93;;;;;;;13.18;100.00;100926.09;5058556;28;20223;-71
2021/08/30 05:29:38;;;;;;;14.07;6.73;;;;;;;13.23;100.00;100929.31;5055667;28;20195;-69
2021/08/30 05:32:06;;;;;;;25.07;9.17;;;;;;;13.24;100.00;100926.56;5055858;28;20545;-69
2021/08/30 05:34:31;;;;;;;14.20;8.23;;;;;;;13.29;100.00;100918.22;5055757;28;20187;-69
2021/08/30 05:36:56;;;;;;;27.20;10.13;;;;;;;13.36;100.00;100919.56;5056870;28;20174;-69
2021/08/30 05:39:21;;;;;;;16.10;9.67;;;;;;;13.34;100.00;100916.97;5055559;28;20187;-70
2021/08/30 05:41:47;;;;;;;18.10;11.23;;;;;;;13.36;100.00;100885.56;5057746;28;20660;-70
2021/08/30 05:44:12;;;;;;;27.80;13.50;;;;;;;13.41;100.00;100848.63;5057518;28;20198;-70
2021/08/30 05:46:37;;;;;;;31.10;14.67;;;;;;;13.50;100.00;100865.06;5058696;28;20179;-71
2021/08/30 05:49:02;;;;;;;30.20;16.13;;;;;;;13.59;100.00;100873.38;5039821;28;20238;-72
2021/08/30 05:51:28;;;;;;;45.63;19.67;;;;;;;13.66;100.00;100881.88;5059166;28;20176;-70
2021/08/30 05:53:53;;;;;;;45.63;19.53;;;;;;;13.72;100.00;100881.47;5057590;28;20534;-71
2021/08/30 05:56:18;;;;;;;33.60;18.83;;;;;;;13.70;100.00;100870.00;5055723;28;20186;-70
2021/08/30 05:58:44;;;;;;;36.07;18.70;;;;;;;13.73;100.00;100891.25;5056109;28;20214;-70
2021/08/30 06:01:09;;;;;;;41.63;18.50;;;;;;;13.80;100.00;100892.59;5056166;28;20203;-71
2021/08/30 06:03:35;;;;;;;42.50;19.80;;;;;;;13.85;100.00;100886.91;5054217;28;20176;-70
2021/08/30 06:06:00;;;;;;;40.00;17.83;;;;;;;13.96;100.00;100895.13;5055274;28;20186;-71
2021/08/30 06:08:25;;;;;;;42.87;18.70;;;;;;;13.97;100.00;100892.31;5055354;28;20187;-71
2021/08/30 06:10:51;;;;;;;60.60;19.43;;;;;;;13.98;100.00;100891.38;5055796;28;20231;-71
2021/08/30 06:13:18;;;;;;;26.63;13.83;;;;;;;13.91;100.00;100892.75;5054939;28;20203;-71
2021/08/30 06:15:43;;;;;;;26.93;15.47;;;;;;;13.94;100.00;100892.53;5053941;28;20180;-71
2021/08/30 06:18:08;;;;;;;22.57;13.77;;;;;;;13.92;100.00;100897.13;5054851;28;20668;-70
2021/08/30 06:20:34;;;;;;;26.90;15.10;;;;;;;13.92;100.00;100907.88;5053344;28;20196;-70
2021/08/30 06:22:59;;;;;;;26.70;15.03;;;;;;;13.93;100.00;100906.06;5054869;28;20180;-71
2021/08/30 06:25:25;;;;;;;33.77;15.60;;;;;;;13.97;100.00;100899.53;5053453;28;20183;-71
2021/08/30 06:27:50;;;;;;;23.47;13.93;;;;;;;14.00;100.00;100894.81;5054375;28;20175;-71
2021/08/30 06:30:15;;;;;;;21.53;12.43;;;;;;;13.97;100.00;100891.47;5036484;28;20203;-71
2021/08/30 06:32:41;;;;;;;26.13;13.13;;;;;;;14.01;100.00;100907.25;5053432;28;20183;-70
2021/08/30 06:35:08;;;;;;;18.60;11.77;;;;;;;13.96;100.00;100890.59;5053707;28;20180;-71
2021/08/30 06:37:33;;;;;;;17.73;11.60;;;;;;;13.96;100.00;100895.97;5054803;28;20233;-69
2021/08/30 06:39:59;;;;;;;32.17;13.53;;;;;;;13.96;100.00;100904.03;5036385;28;20636;-70
2021/08/30 06:42:24;;;;;;;21.27;11.97;;;;;;;13.98;100.00;100904.78;5054506;28;20180;-69
2021/08/30 06:44:49;;;;;;;17.03;9.80;;;;;;;13.94;100.00;100899.72;5054289;28;20167;-71
2021/08/30 06:47:15;;;;;;;21.27;10.90;;;;;;;13.93;100.00;100895.31;5036288;28;20191;-71
2021/08/30 06:49:40;;;;;;;24.03;11.73;;;;;;;13.92;100.00;100897.13;5053080;28;20673;-70
2021/08/30 06:52:06;;;;;;;15.97;10.53;;;;;;;13.89;100.00;100897.34;5036825;28;20189;-71
2021/08/30 06:54:33;;;;;;;18.83;10.87;;;;;;;13.88;100.00;100894.75;5054363;28;20183;-70
2021/08/30 06:56:58;;;;;;;22.90;12.00;;;;;;;13.89;100.00;100893.81;5070359;28;20180;-70
2021/08/30 06:59:24;;;;;;;19.40;10.97;;;;;;;13.89;100.00;100902.72;5054494;28;20192;-71
2021/08/30 07:01:49;;;;;;;15.90;10.90;;;;;;;13.94;100.00;100910.47;5053203;28;20584;-70
2021/08/30 07:04:14;;;;;;;14.53;10.90;;;;;;;13.93;100.00;100906.06;5054261;28;20656;-70
2021/08/30 07:06:40;;;;;;;21.77;11.20;;;;;;;13.94;100.00;100897.03;5053272;28;20222;-70
2021/08/30 07:09:05;;;;;;;16.70;9.83;;;;;;;13.87;100.00;100901.97;5054447;28;20624;-69
2021/08/30 07:11:32;;;;;;;12.53;9.60;;;;;;;13.89;100.00;100900.03;5052913;28;20645;-70
2021/08/30 07:13:58;;;;;;;17.70;11.30;;;;;;;13.88;100.00;100898.31;5054673;28;20175;-70
2021/08/30 07:16:24;;;;;;;18.27;11.77;;;;;;;13.92;100.00;100902.50;5036148;28;20175;-71
2021/08/30 07:18:49;;;;;;;16.63;11.67;;;;;;;13.93;100.00;100904.22;5052467;28;20593;-71
2021/08/30 07:21:14;;;;;;;20.70;13.57;;;;;;;13.96;100.00;100906.72;5053320;28;20191;-70
2021/08/30 07:23:40;;;;;;;24.43;13.47;;;;;;;13.93;100.00;100906.06;5053585;28;20182;-71
2021/08/30 07:26:05;;;;;;;32.37;17.23;;;;;;;13.98;100.00;100934.31;5053112;28;20537;-71
2021/08/30 07:28:30;;;;;;;26.43;16.27;;;;;;;14.08;100.00;100937.22;5053432;28;20237;-70
2021/08/30 07:30:56;;;;;;;27.40;15.93;;;;;;;14.10;100.00;100911.16;5051843;28;20203;-71
2021/08/30 07:33:21;;;;;;;30.03;18.57;;;;;;;14.16;100.00;100913.47;5035609;28;20179;-70
2021/08/30 07:35:46;;;;;;;27.47;16.17;;;;;;;14.11;100.00;100910.19;5053639;28;20171;-71
2021/08/30 07:38:12;;;;;;;29.60;17.77;;;;;;;14.13;100.00;100920.84;5051913;28;20179;-69
2021/08/30 07:40:37;;;;;;;34.03;17.90;;;;;;;14.14;100.00;100920.75;5035178;28;20195;-70
2021/08/30 07:43:02;;;;;;;32.27;17.50;;;;;;;14.12;100.00;100919.09;5053551;28;20179;-69
2021/08/30 07:45:28;;;;;;;30.30;16.47;;;;;;;14.09;100.00;100843.19;5053525;28;20634;-70
2021/08/30 07:47:53;;;;;;;31.70;17.57;;;;;;;14.12;100.00;100892.25;5051928;28;20175;-70
2021/08/30 07:50:19;;;;;;;24.77;15.57;;;;;;;14.14;100.00;100926.13;5074631;23;20709;-71
2021/08/30 07:52:45;;;;;;;39.67;18.23;;;;;;;14.15;100.00;100930.53;5053161;28;20183;-71
2021/08/30 07:55:11;;;;;;;27.67;16.13;;;;;;;14.15;100.00;100929.66;5052564;28;20577;-70
2021/08/30 07:57:36;;;;;;;50.37;21.37;;;;;;;14.15;100.00;100925.16;5035725;28;20187;-71
2021/08/30 08:00:03;;;;;;;25.30;15.03;;;;;;;14.15;100.00;100930.53;5052520;28;20329;-72
2021/08/30 08:02:28;;;;;;;31.47;15.53;;;;;;;14.12;100.00;100927.16;5052798;28;20266;-72
2021/08/30 08:04:54;;;;;;;22.17;13.57;;;;;;;14.08;100.00;100924.69;5069839;28;20206;-72
2021/08/30 08:07:19;;;;;;;21.33;13.10;;;;;;;14.06;100.00;100889.03;5052776;28;20179;-72
2021/08/30 08:09:44;;;;;;;26.13;13.27;;;;;;;14.03;100.00;100883.88;5053488;28;20257;-71
2021/08/30 08:12:09;;;;;;;23.00;13.60;;;;;;;14.03;100.00;100899.97;5053727;28;20183;-71
2021/08/30 08:14:35;;;;;;;36.23;16.43;;;;;;;14.10;100.00;100911.16;5052135;28;20186;-71
2021/08/30 08:17:00;;;;;;;34.47;16.37;;;;;;;14.16;100.00;100920.66;5052123;28;20510;-71
2021/08/30 08:19:25;;;;;;;32.90;16.80;;;;;;;14.29;100.00;100925.09;5035092;28;20182;-72
2021/08/30 08:21:51;;;;;;;26.80;15.27;;;;;;;14.44;100.00;100887.44;5051650;28;20172;-72
2021/08/30 08:24:16;;;;;;;31.73;14.67;;;;;;;14.59;100.00;100938.31;5035645;28;20205;-71
2021/08/30 08:26:42;;;;;;;26.30;12.67;;;;;;;14.66;100.00;100949.50;5052153;28;20176;-71
2021/08/30 08:29:07;;;;;;;25.00;12.53;;;;;;;14.95;100.00;100937.63;5069155;28;20184;-72
2021/08/30 08:31:33;;;;;;;20.33;9.93;;;;;;;14.90;100.00;100938.91;5052200;28;20278;-71
2021/08/30 08:33:58;;;;;;;20.33;10.13;;;;;;;15.00;100.00;100951.59;5051985;28;20258;-72
2021/08/30 08:36:24;;;;;;;17.13;9.60;;;;;;;15.12;100.00;100957.06;5052069;28;20180;-73
2021/08/30 08:38:49;;;;;;;14.77;9.10;;;;;;;15.08;100.00;100955.56;5052080;28;20180;-70
2021/08/30 08:41:15;;;;;;;17.57;10.50;;;;;;;15.12;100.00;100959.75;5035268;28;20191;-72
2021/08/30 08:43:41;;;;;;;19.67;9.27;;;;;;;15.08;100.00;100958.25;5038768;28;20187;-72
2021/08/30 08:46:06;;;;;;;16.40;9.47;;;;;;;14.95;100.00;100971.69;5055964;28;20186;-71
2021/08/30 08:48:32;;;;;;;17.63;9.43;;;;;;;14.97;100.00;100978.69;5055728;28;20179;-71
2021/08/30 08:50:57;;;;;;;24.30;10.90;;;;;;;14.95;100.00;100985.13;5055863;28;20210;-72
2021/08/30 08:53:23;;;;;;;20.83;11.10;;;;;;;15.05;100.00;100990.72;5055962;28;20179;-71
2021/08/30 08:55:48;;;;;;;20.07;9.43;;;;;;;15.03;100.00;100990.84;5056156;28;20180;-70
2021/08/30 08:58:17;;;;;;;22.17;10.00;;;;;;;15.17;100.00;100998.78;5039268;28;20187;-71
2021/08/30 09:00:44;;;;;;;17.63;9.33;;;;;;;15.11;100.00;101001.91;5039046;28;20195;-72
2021/08/30 09:03:14;;;;;;;16.87;8.43;;;;;;;15.25;100.00;100992.91;5056253;28;20168;-72
2021/08/30 09:05:40;;;;;;;12.50;8.10;;;;;;;15.24;100.00;100981.28;5056445;28;20538;-72
2021/08/30 09:08:05;;;;;;;14.37;8.00;;;;;;;15.39;100.00;100991.94;5039101;28;20179;-72
2021/08/30 09:10:37;;;;;;;18.23;9.50;;;;;;;15.44;100.00;101003.22;5055332;28;20701;-71
2021/08/30 09:13:06;;;;;;;20.87;9.07;;;;;;;15.52;100.00;100995.47;5056378;28;20302;-72
2021/08/30 09:15:32;;;;;;;15.23;8.23;;;;;;;15.74;100.00;100992.16;5039535;28;20172;-72
2021/08/30 09:17:57;;;;;;;12.63;7.27;;;;;;;15.71;100.00;101006.69;5055533;28;20527;-72
2021/08/30 09:20:25;;;;;;;13.47;7.13;;;;;;;15.50;100.00;101005.47;5057387;28;20203;-72
2021/08/30 09:22:51;;;;;;;16.40;8.50;;;;;;;15.71;100.00;101013.91;5040653;28;20585;-72
2021/08/30 09:25:17;;;;;;;12.50;7.23;;;;;;;15.50;100.00;101016.22;5057031;28;20183;-72
2021/08/30 09:27:47;;;;;;;15.03;7.80;;;;;;;15.20;100.00;101003.94;5058447;28;20199;-72
2021/08/30 09:30:15;;;;;;;16.47;8.20;;;;;;;15.16;100.00;101021.28;5040976;28;20238;-72
2021/08/30 09:32:49;;;;;;;12.70;7.87;;;;;;;15.07;100.00;101008.47;5055889;28;20175;-72
2021/08/30 09:35:15;;;;;;;17.53;9.27;;;;;;;15.07;100.00;101008.47;5039017;28;20171;-72
2021/08/30 09:37:43;;;;;;;15.37;8.60;;;;;;;15.10;100.00;101028.91;5055630;28;20179;-72
2021/08/30 09:40:20;;;;;;;15.90;7.80;;;;;;;15.07;100.00;101024.59;5056108;28;20557;-73
2021/08/30 09:42:54;;;;;;;11.07;7.90;;;;;;;15.32;100.00;101023.78;5055673;28;20166;-72
2021/08/30 09:45:21;;;;;;;12.40;7.20;;;;;;;15.43;100.00;101023.00;5055555;28;20163;-72
2021/08/30 09:47:57;;;;;;;16.13;8.23;;;;;;;15.76;100.00;101030.56;5057209;28;20180;-72
2021/08/30 09:50:30;;;;;;;11.13;7.10;;;;;;;15.61;100.00;101027.16;5039275;28;20214;-72
2021/08/30 09:52:57;;;;;;;16.60;8.10;;;;;;;15.18;100.00;101024.72;5055064;28;20188;-72
2021/08/30 09:55:22;;;;;;;16.90;7.43;;;;;;;14.95;100.00;101018.25;5071939;28;20172;-72
2021/08/30 09:57:51;;;;;;;15.47;8.63;;;;;;;14.95;100.00;101020.94;5038862;28;20183;-73
2021/08/30 10:00:17;;;;;;;16.13;8.83;;;;;;;15.01;100.00;101016.97;5065297;28;20299;-72
2021/08/30 10:02:54;;;;;;;18.93;9.27;;;;;;;15.12;100.00;101019.75;5039791;28;20179;-72
2021/08/30 10:05:21;;;;;;;16.77;8.67;;;;;;;15.48;100.00;101024.41;5038714;28;20179;-73
2021/08/30 10:07:47;;;;;;;18.13;8.67;;;;;;;15.76;100.00;101020.66;5060738;28;20186;-72
2021/08/30 10:10:13;;;;;;;10.77;7.63;;;;;;;15.76;100.00;101017.13;5057401;28;20210;-73
2021/08/30 10:12:40;;;;;;;15.83;7.50;;;;;;;15.42;100.00;101014.09;5071938;28;20175;-72
2021/08/30 10:15:06;;;;;;;11.93;7.30;;;;;;;15.24;100.00;101020.75;5054192;28;20702;-71
2021/08/30 10:17:32;;;;;;;12.07;7.90;;;;;;;15.06;100.00;101017.50;5037555;28;20251;-71
2021/08/30 10:19:59;;;;;;;12.83;8.27;;;;;;;15.09;100.00;101027.19;5070976;28;20621;-72
2021/08/30 10:22:25;;;;;;;16.03;8.70;;;;;;;15.16;100.00;101023.09;5072190;28;20167;-73
2021/08/30 10:24:52;;;;;;;12.70;8.20;;;;;;;15.32;100.00;101019.25;5054266;28;20230;-72
2021/08/30 10:27:28;;;;;;;13.30;7.80;;;;;;;15.52;100.00;101019.66;5037717;28;20179;-72
2021/08/30 10:30:03;;;;;;;9.70;6.97;;;;;;;15.59;100.00;100940.28;5037551;28;20210;-71
2021/08/30 10:32:30;;;;;;;10.60;6.70;;;;;;;15.61;100.00;100935.69;5054521;28;20210;-71
2021/08/30 10:34:56;;;;;;;14.40;6.60;;;;;;;15.92;100.00;100931.59;5054348;28;20180;-71
2021/08/30 10:37:22;;;;;;;14.50;7.07;;;;;;;16.15;100.00;101138.09;5038084;28;20175;-72
2021/08/30 10:39:52;;;;;;;10.80;6.13;;;;;;;15.88;100.00;100879.81;5037530;28;20198;-71
2021/08/30 10:42:18;;;;;;;13.37;6.40;;;;;;;16.36;100.00;100858.28;5054276;28;20159;-71
2021/08/30 10:45:02;;;;;;;7.57;5.77;;;;;;;16.34;100.00;100924.84;5055324;28;20175;-73
2021/08/30 10:47:35;;;;;;;12.63;7.10;;;;;;;16.15;100.00;100913.75;5037845;28;20167;-73
2021/08/30 10:50:00;;;;;;;13.60;7.10;;;;;;;16.05;100.00;100918.97;5038125;28;20233;-72
2021/08/30 10:52:36;;;;;;;12.47;6.73;;;;;;;15.30;100.00;100910.94;5054331;28;20709;-72
2021/08/30 10:55:01;;;;;;;15.27;8.20;;;;;;;15.28;100.00;100929.00;5055562;28;20207;-73
2021/08/30 10:57:35;;;;;;;13.53;8.57;;;;;;;15.23;100.00;100932.97;5037186;28;20179;-71
2021/08/30 11:00:01;;;;;;;12.80;8.40;;;;;;;15.15;100.00;100938.91;5070889;28;20340;-73
2021/08/30 11:02:38;;;;;;;13.17;9.10;;;;;;;15.09;100.00;100936.66;5054330;28;20582;-73
2021/08/30 11:05:06;;;;;;;12.13;8.10;;;;;;;15.02;100.00;100924.59;5052999;28;20672;-72
2021/08/30 11:07:31;;;;;;;12.63;8.43;;;;;;;15.15;100.00;100930.81;5053914;28;20176;-73
2021/08/30 11:09:59;;;;;;;15.93;8.60;;;;;;;15.28;100.00;100934.41;5053419;28;20268;-73